createdAt,value
2017-12-26T00:00:04.603Z,8.20
2017-12-26T00:02:32.058Z,8.30
2017-12-26T00:04:59.518Z,8.30
2017-12-26T00:07:26.973Z,8.30
2017-12-26T00:09:54.438Z,8.30
2017-12-26T00:12:21.876Z,8.30
2017-12-26T00:14:49.438Z,8.30
2017-12-26T00:17:16.890Z,8.30
2017-12-26T00:19:44.349Z,8.20
2017-12-26T00:22:11.793Z,8.30
2017-12-26T00:24:39.250Z,8.20
2017-12-26T00:27:06.735Z,8.10
2017-12-26T00:29:34.183Z,8.20
2017-12-26T00:32:01.741Z,8.10
2017-12-26T00:34:29.187Z,8.20
2017-12-26T00:36:56.653Z,8.20
2017-12-26T00:39:24.094Z,8.10
2017-12-26T00:41:51.531Z,8.10
2017-12-26T00:44:19.035Z,8.00
2017-12-26T00:46:46.478Z,8.00
2017-12-26T00:49:13.913Z,8.00
2017-12-26T00:51:41.338Z,8.00
2017-12-26T00:54:09.527Z,8.00
2017-12-26T00:56:37.005Z,7.90
2017-12-26T00:59:04.431Z,7.90
2017-12-26T01:01:32.631Z,7.80
2017-12-26T01:04:00.055Z,7.80
2017-12-26T01:06:28.389Z,7.80
2017-12-26T01:08:55.954Z,7.80
2017-12-26T01:11:23.419Z,7.90
2017-12-26T01:13:50.843Z,8.00
2017-12-26T01:16:18.272Z,8.10
2017-12-26T01:18:45.694Z,8.00
2017-12-26T01:21:13.130Z,8.10
2017-12-26T01:23:40.586Z,8.10
2017-12-26T01:26:08.054Z,8.00
2017-12-26T01:28:35.480Z,7.90
2017-12-26T01:31:02.915Z,7.90
2017-12-26T01:33:30.398Z,7.90
2017-12-26T01:35:57.836Z,7.90
2017-12-26T01:38:25.263Z,7.90
2017-12-26T01:40:53.486Z,7.80
2017-12-26T01:43:20.918Z,7.70
2017-12-26T01:45:48.339Z,7.80
2017-12-26T01:48:16.529Z,7.90
2017-12-26T01:50:43.954Z,7.80
2017-12-26T01:53:11.482Z,7.80
2017-12-26T01:55:39.054Z,7.80
2017-12-26T01:58:07.638Z,7.80
2017-12-26T02:00:35.069Z,7.80
2017-12-26T02:03:02.505Z,7.70
2017-12-26T02:05:31.524Z,7.70
2017-12-26T02:07:58.990Z,7.70
2017-12-26T02:10:26.599Z,7.70
2017-12-26T02:12:53.988Z,7.80
2017-12-26T02:15:21.405Z,7.80
2017-12-26T02:17:48.840Z,7.70
2017-12-26T02:20:16.258Z,7.70
2017-12-26T02:22:43.690Z,7.70
2017-12-26T02:25:11.174Z,7.80
2017-12-26T02:27:38.634Z,7.80
2017-12-26T02:30:06.070Z,7.90
2017-12-26T02:32:33.551Z,7.80
2017-12-26T02:35:00.987Z,7.80
2017-12-26T02:37:28.414Z,7.70
2017-12-26T02:39:55.848Z,7.60
2017-12-26T02:42:23.273Z,7.60
2017-12-26T02:44:50.717Z,7.60
2017-12-26T02:47:18.158Z,7.60
2017-12-26T02:49:45.601Z,7.50
2017-12-26T02:52:13.022Z,7.50
2017-12-26T02:54:40.470Z,7.50
2017-12-26T02:57:07.886Z,7.40
2017-12-26T02:59:35.359Z,7.40
2017-12-26T03:02:02.786Z,7.50
2017-12-26T03:04:30.276Z,7.50
2017-12-26T03:06:57.700Z,7.40
2017-12-26T03:09:25.133Z,7.40
2017-12-26T03:11:53.354Z,7.30
2017-12-26T03:14:20.823Z,7.30
2017-12-26T03:16:48.249Z,7.40
2017-12-26T03:19:15.699Z,7.40
2017-12-26T03:21:43.186Z,7.50
2017-12-26T03:24:10.638Z,7.50
2017-12-26T03:26:38.102Z,7.40
2017-12-26T03:29:05.537Z,7.50
2017-12-26T03:31:33.013Z,7.50
2017-12-26T03:34:00.438Z,7.40
2017-12-26T03:36:27.862Z,7.40
2017-12-26T03:38:56.046Z,7.30
2017-12-26T03:41:24.261Z,7.30
2017-12-26T03:43:51.730Z,7.30
2017-12-26T03:46:19.178Z,7.30
2017-12-26T03:48:46.635Z,7.30
2017-12-26T03:51:14.089Z,7.30
2017-12-26T03:53:41.550Z,7.30
2017-12-26T03:56:08.981Z,7.20
2017-12-26T03:58:36.470Z,7.20
2017-12-26T04:01:03.919Z,7.30
2017-12-26T04:03:31.339Z,7.20
2017-12-26T04:05:58.779Z,7.30
2017-12-26T04:08:26.994Z,7.20
2017-12-26T04:10:54.454Z,7.20
2017-12-26T04:13:21.883Z,7.10
2017-12-26T04:15:49.381Z,7.00
2017-12-26T04:18:16.821Z,7.00
2017-12-26T04:20:44.274Z,6.90
2017-12-26T04:23:11.757Z,6.90
2017-12-26T04:25:39.175Z,6.90
2017-12-26T04:28:06.670Z,6.80
2017-12-26T04:30:34.172Z,6.80
2017-12-26T04:33:01.606Z,6.70
2017-12-26T04:35:29.029Z,6.70
2017-12-26T04:37:56.578Z,6.60
2017-12-26T04:40:24.009Z,6.60
2017-12-26T04:42:51.426Z,6.60
2017-12-26T04:45:18.858Z,6.60
2017-12-26T04:47:46.284Z,6.50
2017-12-26T04:50:13.714Z,6.40
2017-12-26T04:52:41.155Z,6.40
2017-12-26T04:55:09.486Z,6.40
2017-12-26T04:57:36.914Z,6.30
2017-12-26T05:00:04.398Z,6.30
2017-12-26T05:02:31.834Z,6.20
2017-12-26T05:04:59.257Z,6.20
2017-12-26T05:07:27.477Z,6.10
2017-12-26T05:09:54.973Z,6.10
2017-12-26T05:12:22.397Z,6.10
2017-12-26T05:14:49.834Z,6.00
2017-12-26T05:17:17.273Z,6.00
2017-12-26T05:19:44.773Z,6.00
2017-12-26T05:22:12.202Z,6.00
2017-12-26T05:24:39.650Z,6.00
2017-12-26T05:27:07.138Z,6.00
2017-12-26T05:29:34.595Z,6.00
2017-12-26T05:32:02.018Z,6.00
2017-12-26T05:34:29.522Z,5.90
2017-12-26T05:36:56.946Z,5.90
2017-12-26T05:39:24.382Z,5.80
2017-12-26T05:41:51.978Z,5.80
2017-12-26T05:44:19.410Z,5.80
2017-12-26T05:46:46.858Z,5.80
2017-12-26T05:49:14.344Z,5.80
2017-12-26T05:51:41.769Z,5.70
2017-12-26T05:54:09.197Z,5.70
2017-12-26T05:56:37.439Z,5.80
2017-12-26T05:59:04.878Z,5.80
2017-12-26T06:01:32.354Z,5.80
2017-12-26T06:03:59.802Z,5.70
2017-12-26T06:06:27.239Z,5.70
2017-12-26T06:08:54.687Z,5.70
2017-12-26T06:11:22.174Z,5.70
2017-12-26T06:13:49.610Z,5.60
2017-12-26T06:16:17.282Z,5.70
2017-12-26T06:18:44.726Z,5.70
2017-12-26T06:21:12.198Z,5.70
2017-12-26T06:23:39.622Z,5.70
2017-12-26T06:26:07.218Z,5.70
2017-12-26T06:28:34.743Z,5.70
2017-12-26T06:31:02.170Z,5.70
2017-12-26T06:33:30.358Z,5.70
2017-12-26T06:35:57.854Z,5.60
2017-12-26T06:38:25.293Z,5.70
2017-12-26T06:40:52.778Z,5.70
2017-12-26T06:43:20.220Z,5.70
2017-12-26T06:45:47.685Z,5.60
2017-12-26T06:48:15.356Z,5.60
2017-12-26T06:50:42.806Z,5.50
2017-12-26T06:53:10.293Z,5.50
2017-12-26T06:55:37.695Z,5.50
2017-12-26T06:58:05.130Z,5.50
2017-12-26T07:00:32.642Z,5.50
2017-12-26T07:03:00.098Z,5.50
2017-12-26T07:05:27.543Z,5.50
2017-12-26T07:07:54.978Z,5.50
2017-12-26T07:10:22.434Z,5.60
2017-12-26T07:12:49.853Z,5.60
2017-12-26T07:15:18.078Z,5.70
2017-12-26T07:17:45.535Z,5.70
2017-12-26T07:20:18.690Z,5.70
2017-12-26T07:22:46.301Z,5.80
2017-12-26T07:25:13.847Z,5.90
2017-12-26T07:27:41.284Z,6.00
2017-12-26T07:30:08.713Z,6.00
2017-12-26T07:32:36.155Z,6.20
2017-12-26T07:35:04.363Z,6.40
2017-12-26T07:37:32.538Z,6.50
2017-12-26T07:40:00.023Z,6.50
2017-12-26T07:42:27.481Z,6.60
2017-12-26T07:44:54.987Z,6.60
2017-12-26T07:47:22.358Z,6.70
2017-12-26T07:49:49.786Z,6.90
2017-12-26T07:52:17.983Z,7.00
2017-12-26T07:54:45.453Z,6.90
2017-12-26T07:57:12.879Z,7.10
2017-12-26T07:59:41.093Z,7.10
2017-12-26T08:02:08.525Z,7.10
2017-12-26T08:04:35.977Z,7.20
2017-12-26T08:07:03.414Z,7.30
2017-12-26T08:09:31.614Z,7.40
2017-12-26T08:11:59.116Z,7.30
2017-12-26T08:14:26.537Z,7.40
2017-12-26T08:16:53.961Z,7.50
2017-12-26T08:19:22.178Z,7.60
2017-12-26T08:21:49.638Z,7.60
2017-12-26T08:24:17.102Z,7.70
2017-12-26T08:26:44.561Z,7.70
2017-12-26T08:29:12.018Z,7.70
2017-12-26T08:31:39.530Z,7.70
2017-12-26T08:34:07.055Z,7.80
2017-12-26T08:36:34.462Z,7.80
2017-12-26T08:39:01.900Z,7.80
2017-12-26T08:41:29.397Z,7.90
2017-12-26T08:43:56.833Z,8.10
2017-12-26T08:46:24.283Z,8.10
2017-12-26T08:48:51.758Z,8.10
2017-12-26T08:51:19.187Z,8.20
2017-12-26T08:53:46.623Z,8.20
2017-12-26T08:56:14.848Z,8.30
2017-12-26T08:58:42.289Z,8.30
2017-12-26T09:01:09.767Z,8.30
2017-12-26T09:03:37.215Z,8.40
2017-12-26T09:06:04.671Z,8.40
2017-12-26T09:08:32.154Z,8.50
2017-12-26T09:10:59.578Z,8.60
2017-12-26T09:13:27.015Z,8.70
2017-12-26T09:15:55.207Z,8.60
2017-12-26T09:18:22.654Z,8.50
2017-12-26T09:20:50.082Z,8.60
2017-12-26T09:23:17.510Z,8.50
2017-12-26T09:25:44.954Z,8.50
2017-12-26T09:28:12.378Z,8.40
2017-12-26T09:30:39.818Z,8.40
2017-12-26T09:33:07.243Z,8.30
2017-12-26T09:35:34.674Z,8.40
2017-12-26T09:38:02.102Z,8.40
2017-12-26T09:40:29.540Z,8.30
2017-12-26T09:42:56.971Z,8.30
2017-12-26T09:45:24.456Z,8.20
2017-12-26T09:47:52.682Z,8.20
2017-12-26T09:50:20.158Z,8.20
2017-12-26T09:52:47.582Z,8.20
2017-12-26T09:55:15.061Z,8.30
2017-12-26T09:57:42.625Z,8.30
2017-12-26T10:00:10.054Z,8.30
2017-12-26T10:02:37.550Z,8.30
2017-12-26T10:05:04.990Z,8.30
2017-12-26T10:07:32.430Z,8.20
2017-12-26T10:09:59.906Z,8.20
2017-12-26T10:12:27.330Z,8.20
2017-12-26T10:14:54.751Z,8.10
2017-12-26T10:17:22.296Z,8.10
2017-12-26T10:19:49.711Z,8.10
2017-12-26T10:22:17.146Z,8.10
2017-12-26T10:24:44.645Z,8.10
2017-12-26T10:27:12.116Z,8.00
2017-12-26T10:29:39.555Z,8.00
2017-12-26T10:32:07.048Z,8.00
2017-12-26T10:34:34.467Z,7.90
2017-12-26T10:37:01.911Z,8.00
2017-12-26T10:39:29.338Z,8.00
2017-12-26T10:41:56.774Z,7.90
2017-12-26T10:44:24.295Z,7.80
2017-12-26T10:46:51.755Z,7.80
2017-12-26T10:49:19.194Z,7.80
2017-12-26T10:51:46.659Z,7.90
2017-12-26T10:54:14.143Z,7.90
2017-12-26T10:56:41.689Z,7.90
2017-12-26T10:59:09.188Z,7.80
2017-12-26T11:01:36.616Z,7.90
2017-12-26T11:04:04.151Z,7.90
2017-12-26T11:06:31.593Z,7.80
2017-12-26T11:08:59.020Z,7.80
2017-12-26T11:11:27.362Z,7.80
2017-12-26T11:13:54.792Z,7.80
2017-12-26T11:16:22.258Z,7.80
2017-12-26T11:18:49.685Z,7.80
2017-12-26T11:21:17.183Z,7.80
2017-12-26T11:23:44.842Z,7.70
2017-12-26T11:26:12.266Z,7.80
2017-12-26T11:28:39.703Z,7.90
2017-12-26T11:31:07.131Z,7.90
2017-12-26T11:33:34.579Z,7.80
2017-12-26T11:36:02.015Z,7.80
2017-12-26T11:38:29.473Z,7.70
2017-12-26T11:40:56.947Z,7.70
2017-12-26T11:43:24.388Z,7.70
2017-12-26T11:45:51.814Z,7.70
2017-12-26T11:48:19.303Z,7.80
2017-12-26T11:50:46.743Z,7.70
2017-12-26T11:53:14.196Z,7.70
2017-12-26T11:55:41.624Z,7.70
2017-12-26T11:58:09.219Z,7.70
2017-12-26T12:00:36.648Z,7.70
2017-12-26T12:03:04.103Z,7.70
2017-12-26T12:05:31.603Z,7.70
2017-12-26T12:07:59.055Z,7.60
2017-12-26T12:10:26.599Z,7.70
2017-12-26T12:12:54.151Z,7.70
2017-12-26T12:15:21.578Z,7.70
2017-12-26T12:17:49.070Z,7.70
2017-12-26T12:20:16.507Z,7.80
2017-12-26T12:22:43.934Z,7.70
2017-12-26T12:25:11.548Z,7.70
2017-12-26T12:27:39.206Z,7.70
2017-12-26T12:30:06.663Z,7.70
2017-12-26T12:32:34.083Z,7.70
2017-12-26T12:35:01.567Z,7.60
2017-12-26T12:37:29.031Z,7.70
2017-12-26T12:39:56.483Z,7.70
2017-12-26T12:42:23.915Z,7.60
2017-12-26T12:44:51.428Z,7.70
2017-12-26T12:47:18.959Z,7.80
2017-12-26T12:49:46.387Z,7.80
2017-12-26T12:52:13.823Z,7.90
2017-12-26T12:54:42.032Z,7.80
2017-12-26T12:57:09.479Z,7.80
2017-12-26T12:59:36.962Z,7.50
2017-12-26T13:02:04.399Z,7.20
2017-12-26T13:04:31.871Z,7.00
2017-12-26T13:06:59.311Z,6.80
2017-12-26T13:09:26.748Z,6.80
2017-12-26T13:11:54.194Z,6.80
2017-12-26T13:14:21.619Z,6.70
2017-12-26T13:16:49.070Z,6.70
2017-12-26T13:19:16.527Z,6.80
2017-12-26T13:21:43.971Z,6.90
2017-12-26T13:24:11.411Z,6.90
2017-12-26T13:26:39.817Z,7.00
2017-12-26T13:29:07.272Z,7.00
2017-12-26T13:31:34.772Z,7.10
2017-12-26T13:34:02.233Z,7.20
2017-12-26T13:36:29.729Z,7.30
2017-12-26T13:38:57.126Z,7.30
2017-12-26T13:41:24.656Z,7.40
2017-12-26T13:43:52.080Z,7.40
2017-12-26T13:46:19.506Z,7.40
2017-12-26T13:48:47.179Z,7.50
2017-12-26T13:51:14.658Z,7.50
2017-12-26T13:53:42.129Z,7.50
2017-12-26T13:56:09.629Z,7.50
2017-12-26T13:58:37.056Z,7.40
2017-12-26T14:01:04.482Z,7.40
2017-12-26T14:03:32.703Z,7.50
2017-12-26T14:06:00.154Z,7.50
2017-12-26T14:08:27.618Z,7.50
2017-12-26T14:10:55.071Z,7.50
2017-12-26T14:13:22.498Z,7.50
2017-12-26T14:15:49.934Z,7.50
2017-12-26T14:18:18.142Z,7.50
2017-12-26T14:20:45.606Z,7.50
2017-12-26T14:23:13.067Z,7.50
2017-12-26T14:25:40.505Z,7.50
2017-12-26T14:28:07.984Z,7.50
2017-12-26T14:30:35.401Z,7.50
2017-12-26T14:33:02.996Z,7.40
2017-12-26T14:35:30.445Z,7.40
2017-12-26T14:37:57.996Z,7.30
2017-12-26T14:40:25.482Z,7.20
2017-12-26T14:42:52.927Z,7.10
2017-12-26T14:45:20.347Z,7.10
2017-12-26T14:47:47.774Z,7.00
2017-12-26T14:50:15.998Z,7.00
2017-12-26T14:52:43.574Z,7.00
2017-12-26T14:55:11.026Z,7.00
2017-12-26T14:57:38.483Z,7.10
2017-12-26T15:00:05.942Z,7.10
2017-12-26T15:02:33.378Z,7.10
2017-12-26T15:05:00.828Z,7.10
2017-12-26T15:07:28.246Z,7.10
2017-12-26T15:09:56.442Z,7.10
2017-12-26T15:12:23.878Z,7.10
2017-12-26T15:14:52.110Z,7.00
2017-12-26T15:17:19.538Z,6.90
2017-12-26T15:19:47.022Z,6.90
2017-12-26T15:22:14.469Z,6.80
2017-12-26T15:24:41.898Z,6.80
2017-12-26T15:27:09.326Z,6.80
2017-12-26T15:29:36.766Z,6.80
2017-12-26T15:32:04.202Z,6.70
2017-12-26T15:34:31.635Z,6.70
2017-12-26T15:36:59.114Z,6.70
2017-12-26T15:39:26.566Z,6.60
2017-12-26T15:41:54.006Z,6.50
2017-12-26T15:44:21.569Z,6.50
2017-12-26T15:46:48.986Z,6.40
2017-12-26T15:49:17.186Z,6.40
2017-12-26T15:51:44.621Z,6.30
2017-12-26T15:54:12.818Z,6.30
2017-12-26T15:56:40.237Z,6.30
2017-12-26T15:59:08.440Z,6.40
2017-12-26T16:01:35.870Z,6.30
2017-12-26T16:04:04.112Z,6.40
2017-12-26T16:06:31.533Z,6.40
2017-12-26T16:08:58.969Z,6.30
2017-12-26T16:11:27.281Z,6.30
2017-12-26T16:13:54.730Z,6.20
2017-12-26T16:16:22.160Z,6.30
2017-12-26T16:18:50.474Z,6.20
2017-12-26T16:21:17.938Z,6.20
2017-12-26T16:23:45.370Z,6.30
2017-12-26T16:26:12.846Z,6.30
2017-12-26T16:28:40.273Z,6.40
2017-12-26T16:33:40.640Z,6.40
2017-12-26T16:36:08.097Z,6.40
2017-12-26T16:38:35.622Z,6.40
2017-12-26T16:41:03.118Z,6.40
2017-12-26T16:43:30.571Z,6.40
2017-12-26T16:45:57.985Z,6.50
2017-12-26T16:48:25.423Z,6.40
2017-12-26T16:50:53.654Z,6.50
2017-12-26T16:53:21.086Z,6.40
2017-12-26T16:55:48.505Z,6.50
2017-12-26T16:58:16.707Z,6.50
2017-12-26T17:00:44.185Z,6.50
2017-12-26T17:03:11.622Z,6.50
2017-12-26T17:05:39.119Z,6.40
2017-12-26T17:08:06.542Z,6.40
2017-12-26T17:10:33.975Z,6.50
2017-12-26T17:13:02.589Z,6.50
2017-12-26T17:15:30.031Z,6.40
2017-12-26T17:17:57.518Z,6.50
2017-12-26T17:20:24.942Z,6.50
2017-12-26T17:22:52.438Z,6.60
2017-12-26T17:25:19.869Z,6.60
2017-12-26T17:27:47.338Z,6.60
2017-12-26T17:30:14.770Z,6.70
2017-12-26T17:32:42.241Z,6.70
2017-12-26T17:35:09.709Z,6.70
2017-12-26T17:37:37.157Z,6.70
2017-12-26T17:40:04.693Z,6.70
2017-12-26T17:42:32.134Z,6.70
2017-12-26T17:45:00.454Z,6.80
2017-12-26T17:47:27.890Z,6.70
2017-12-26T17:49:55.375Z,6.80
2017-12-26T17:52:22.926Z,6.80
2017-12-26T17:54:50.615Z,6.90
2017-12-26T17:57:18.150Z,6.90
2017-12-26T17:59:45.578Z,6.90
2017-12-26T18:02:13.014Z,6.90
2017-12-26T18:04:41.212Z,7.00
2017-12-26T18:07:08.642Z,6.90
2017-12-26T18:09:36.879Z,7.00
2017-12-26T18:12:04.330Z,6.90
2017-12-26T18:14:31.777Z,6.80
2017-12-26T18:16:59.229Z,6.80
2017-12-26T18:19:26.675Z,6.70
2017-12-26T18:21:54.089Z,6.70
2017-12-26T18:24:22.314Z,6.60
2017-12-26T18:26:49.865Z,6.60
2017-12-26T18:29:17.441Z,6.60
2017-12-26T18:31:44.870Z,6.70
2017-12-26T18:34:12.328Z,6.70
2017-12-26T18:36:39.930Z,6.80
2017-12-26T18:39:07.469Z,6.90
2017-12-26T18:41:34.902Z,6.90
2017-12-26T18:44:02.394Z,6.90
2017-12-26T18:46:29.845Z,6.90
2017-12-26T18:48:57.291Z,7.00
2017-12-26T18:51:24.717Z,7.00
2017-12-26T18:53:52.206Z,6.80
2017-12-26T18:56:19.632Z,6.80
2017-12-26T18:58:47.124Z,6.80
2017-12-26T19:01:14.545Z,6.80
2017-12-26T19:03:42.025Z,6.80
2017-12-26T19:06:09.482Z,6.70
2017-12-26T19:08:36.948Z,6.70
2017-12-26T19:11:04.409Z,6.80
2017-12-26T19:13:31.837Z,6.80
2017-12-26T19:15:59.273Z,6.80
2017-12-26T19:18:27.469Z,6.50
2017-12-26T19:20:54.962Z,6.50
2017-12-26T19:23:22.421Z,6.50
2017-12-26T19:25:49.872Z,6.40
2017-12-26T19:28:17.330Z,6.30
2017-12-26T19:30:44.773Z,6.30
2017-12-26T19:33:12.197Z,6.30
2017-12-26T19:35:40.398Z,6.30
2017-12-26T19:38:07.822Z,6.20
2017-12-26T19:40:36.053Z,6.30
2017-12-26T19:43:03.457Z,6.30
2017-12-26T19:45:31.686Z,6.40
2017-12-26T19:47:59.125Z,6.40
2017-12-26T19:50:26.548Z,6.50
2017-12-26T19:52:54.042Z,6.50
2017-12-26T19:55:21.500Z,6.40
2017-12-26T19:57:48.929Z,6.40
2017-12-26T20:00:16.413Z,6.40
2017-12-26T20:02:43.857Z,6.50
2017-12-26T20:05:11.336Z,6.50
2017-12-26T20:07:38.776Z,6.50
2017-12-26T20:10:06.211Z,6.40
2017-12-26T20:12:33.702Z,6.40
2017-12-26T20:15:01.123Z,6.40
2017-12-26T20:17:28.572Z,6.40
2017-12-26T20:19:56.061Z,6.30
2017-12-26T20:22:23.513Z,6.20
2017-12-26T20:24:51.095Z,6.20
2017-12-26T20:27:18.522Z,6.10
2017-12-26T20:29:45.957Z,6.00
2017-12-26T20:32:14.158Z,6.20
2017-12-26T20:34:41.629Z,6.10
2017-12-26T20:37:09.062Z,6.20
2017-12-26T20:39:36.490Z,6.20
2017-12-26T20:42:04.705Z,6.10
2017-12-26T20:44:32.142Z,6.00
2017-12-26T20:46:59.609Z,6.10
2017-12-26T20:49:27.048Z,6.20
2017-12-26T20:51:54.477Z,6.10
2017-12-26T20:54:22.714Z,6.00
2017-12-26T20:56:50.290Z,6.00
2017-12-26T20:59:17.718Z,6.00
2017-12-26T21:01:45.150Z,5.90
2017-12-26T21:04:12.580Z,5.90
2017-12-26T21:06:40.788Z,5.80
2017-12-26T21:09:08.273Z,5.80
2017-12-26T21:11:35.733Z,5.80
2017-12-26T21:14:03.178Z,5.80
2017-12-26T21:16:30.602Z,5.80
2017-12-26T21:18:58.098Z,5.80
2017-12-26T21:21:25.519Z,5.80
2017-12-26T21:23:52.945Z,5.80
2017-12-26T21:26:21.247Z,5.70
2017-12-26T21:28:48.681Z,5.60
2017-12-26T21:31:16.867Z,5.60
2017-12-26T21:33:44.297Z,5.60
2017-12-26T21:36:11.717Z,5.60
2017-12-26T21:38:39.157Z,5.60
2017-12-26T21:41:06.630Z,5.60
2017-12-26T21:43:34.057Z,5.60
2017-12-26T21:46:01.491Z,5.60
2017-12-26T21:48:29.693Z,5.50
2017-12-26T21:50:57.195Z,5.50
2017-12-26T21:53:24.633Z,5.50
2017-12-26T21:55:52.066Z,5.60
2017-12-26T21:58:19.500Z,5.60
2017-12-26T22:00:46.993Z,5.60
2017-12-26T22:03:14.432Z,5.60
2017-12-26T22:05:41.869Z,5.60
2017-12-26T22:08:09.361Z,5.50
2017-12-26T22:10:36.873Z,5.50
2017-12-26T22:13:04.303Z,5.50
2017-12-26T22:15:31.854Z,5.50
2017-12-26T22:17:59.310Z,5.50
2017-12-26T22:20:26.744Z,5.50
2017-12-26T22:22:54.222Z,5.50
2017-12-26T22:25:21.686Z,5.50
2017-12-26T22:27:49.237Z,5.60
2017-12-26T22:30:16.698Z,5.70
2017-12-26T22:32:44.149Z,5.70
2017-12-26T22:35:11.815Z,5.70
2017-12-26T22:37:39.247Z,5.60
2017-12-26T22:40:06.674Z,5.60
2017-12-26T22:42:34.277Z,5.60
2017-12-26T22:45:01.694Z,5.60
2017-12-26T22:47:29.121Z,5.60
2017-12-26T22:49:56.553Z,5.60
2017-12-26T22:52:23.981Z,5.50
2017-12-26T22:54:51.430Z,5.60
2017-12-26T22:57:18.837Z,5.60
2017-12-26T22:59:46.282Z,5.60
2017-12-26T23:02:13.730Z,5.60
2017-12-26T23:04:41.165Z,5.50
2017-12-26T23:07:08.608Z,5.50
2017-12-26T23:09:36.073Z,5.50
2017-12-26T23:12:03.532Z,5.50
2017-12-26T23:14:36.739Z,5.50
2017-12-26T23:17:09.949Z,5.50
2017-12-26T23:19:43.166Z,5.50
2017-12-26T23:22:11.372Z,5.60
2017-12-26T23:24:44.582Z,5.50
2017-12-26T23:27:17.730Z,5.50
2017-12-26T23:30:03.857Z,5.50
2017-12-26T23:32:37.013Z,5.50
2017-12-26T23:35:10.173Z,5.40
2017-12-26T23:37:43.389Z,5.40
2017-12-26T23:40:16.565Z,5.40
2017-12-26T23:42:49.801Z,5.40
2017-12-26T23:45:22.881Z,5.40
2017-12-26T23:47:56.945Z,5.40
2017-12-26T23:50:30.821Z,5.40
2017-12-26T23:53:03.925Z,5.40
2017-12-26T23:55:37.131Z,5.30
2017-12-26T23:58:10.413Z,5.40
